Time;durP1;ratioP1;P1;durP2;ratioP2;P2;SDS_P1;SDS_P2;PMS_P1;PMS_P2;Temp;Humidity;BMP_temperature;BMP_pressure;BME280_temperature;BME280_humidity;BME280_pressure;Samples;Min_cycle;Max_cycle;Signal;HPM_P1;HPM_P2
2021/10/09 00:02:16;;;;;;;5.43;0.88;;;;;;;;;;4984202;28;20060;-57
2021/10/09 00:04:42;;;;;;;3.15;0.70;;;;;;;;;;4972580;28;20504;-60
2021/10/09 00:07:08;;;;;;;3.95;1.23;;;;;;;;;;4989630;28;20050;-60
2021/10/09 00:09:34;;;;;;;3.83;0.85;;;;;;;;;;4992640;28;20044;-59
2021/10/09 00:12:00;;;;;;;11.88;0.90;;;;;;;;;;4984338;28;20750;-58
2021/10/09 00:14:26;;;;;;;7.78;1.23;;;;;;;;;;4975479;28;20411;-58
2021/10/09 00:16:52;;;;;;;4.25;0.93;;;;;;;;;;4990275;28;20035;-58
2021/10/09 00:19:18;;;;;;;3.25;0.80;;;;;;;;;;4991063;28;20046;-57
2021/10/09 00:21:44;;;;;;;4.15;0.70;;;;;;;;;;4995295;28;20038;-56
2021/10/09 00:24:11;;;;;;;5.05;0.80;;;;;;;;;;4995563;28;20102;-58
2021/10/09 00:26:37;;;;;;;3.25;0.80;;;;;;;;;;4993541;28;20050;-57
2021/10/09 00:29:03;;;;;;;6.30;0.70;;;;;;;;;;4977636;28;20695;-58
2021/10/09 00:31:28;;;;;;;3.67;0.82;;;;;;;;;;4977452;28;20077;-57
2021/10/09 00:33:54;;;;;;;16.02;1.30;;;;;;;;;;4979430;28;20046;-58
2021/10/09 00:36:20;;;;;;;5.60;1.00;;;;;;;;;;4976180;28;20030;-57
2021/10/09 00:38:46;;;;;;;6.28;0.80;;;;;;;;;;4976929;28;20125;-58
2021/10/09 00:41:12;;;;;;;4.13;0.80;;;;;;;;;;4978311;28;20372;-60
2021/10/09 00:43:38;;;;;;;4.15;1.02;;;;;;;;;;4976810;28;20050;-56
2021/10/09 00:46:07;;;;;;;5.80;1.20;;;;;;;;;;4992710;28;20101;-60
2021/10/09 00:48:34;;;;;;;10.23;1.40;;;;;;;;;;4994459;28;20072;-59
2021/10/09 00:51:00;;;;;;;10.13;1.50;;;;;;;;;;4983526;28;20114;-59
2021/10/09 00:53:26;;;;;;;7.43;1.20;;;;;;;;;;4990573;28;20177;-58
2021/10/09 00:55:53;;;;;;;4.80;1.20;;;;;;;;;;4985487;28;20495;-56
2021/10/09 00:58:19;;;;;;;11.45;1.70;;;;;;;;;;4983608;28;20034;-58
2021/10/09 01:00:48;;;;;;;4.50;1.15;;;;;;;;;;4998831;28;20042;-58
2021/10/09 01:03:13;;;;;;;8.18;1.70;;;;;;;;;;4993114;28;20158;-59
2021/10/09 01:05:41;;;;;;;7.93;1.40;;;;;;;;;;4996691;28;20047;-57
2021/10/09 01:08:07;;;;;;;7.25;1.23;;;;;;;;;;5001792;28;20050;-59
2021/10/09 01:10:34;;;;;;;8.48;1.27;;;;;;;;;;4992051;28;20547;-59
2021/10/09 01:13:03;;;;;;;10.15;1.67;;;;;;;;;;4992513;28;20725;-59
2021/10/09 01:15:32;;;;;;;8.77;1.10;;;;;;;;;;4990264;28;20058;-58
2021/10/09 01:18:05;;;;;;;8.63;1.70;;;;;;;;;;4983200;28;20038;-56
2021/10/09 01:20:31;;;;;;;;;;;;;;;;;;4977520;28;20053;-56
2021/10/09 01:23:03;;;;;;;11.32;1.65;;;;;;;;;;4991892;28;19938;-59
2021/10/09 01:25:30;;;;;;;8.77;1.08;;;;;;;;;;4978410;28;20146;-57
2021/10/09 01:27:56;;;;;;;9.65;1.40;;;;;;;;;;4978023;28;20076;-57
2021/10/09 01:30:22;;;;;;;11.43;1.27;;;;;;;;;;4977217;28;20413;-58
2021/10/09 01:32:48;;;;;;;11.45;1.33;;;;;;;;;;4977270;28;20058;-59
2021/10/09 01:35:14;;;;;;;7.13;1.40;;;;;;;;;;4974666;28;20038;-59
2021/10/09 01:37:41;;;;;;;6.13;1.67;;;;;;;;;;4974753;28;20487;-59
2021/10/09 01:40:07;;;;;;;7.53;1.73;;;;;;;;;;4975622;28;21886;-58
2021/10/09 01:42:34;;;;;;;11.23;1.80;;;;;;;;;;4975332;28;20138;-59
2021/10/09 01:45:00;;;;;;;11.23;1.90;;;;;;;;;;4983378;28;20035;-57
2021/10/09 01:47:26;;;;;;;13.43;2.17;;;;;;;;;;4974484;28;20046;-59
2021/10/09 01:49:52;;;;;;;6.05;1.80;;;;;;;;;;4989420;28;20400;-58
2021/10/09 01:52:17;;;;;;;5.07;1.77;;;;;;;;;;4975053;28;20073;-59
2021/10/09 01:54:43;;;;;;;8.18;1.83;;;;;;;;;;4992533;28;20034;-59
2021/10/09 01:57:09;;;;;;;10.52;2.42;;;;;;;;;;4988068;28;20193;-57
2021/10/09 01:59:35;;;;;;;13.05;2.47;;;;;;;;;;4973898;28;20046;-60
2021/10/09 02:02:01;;;;;;;12.18;1.98;;;;;;;;;;4972459;28;20487;-57
2021/10/09 02:04:27;;;;;;;13.60;2.05;;;;;;;;;;4974676;28;20035;-60
2021/10/09 02:06:53;;;;;;;11.07;2.38;;;;;;;;;;4974730;28;20038;-60
2021/10/09 02:09:20;;;;;;;21.75;2.67;;;;;;;;;;4975384;28;20081;-56
2021/10/09 02:11:49;;;;;;;12.55;2.28;;;;;;;;;;4975497;28;20494;-59
2021/10/09 02:28:02;;;;;;;10.23;1.67;;;;;;;;;;4990060;28;20133;-56
2021/10/09 02:30:28;;;;;;;4.82;1.45;;;;;;;;;;4990234;28;20704;-57
2021/10/09 02:32:53;;;;;;;7.20;1.45;;;;;;;;;;4992537;28;20081;-57
2021/10/09 02:35:19;;;;;;;6.25;1.30;;;;;;;;;;4991231;28;20046;-56
2021/10/09 02:37:45;;;;;;;11.98;1.63;;;;;;;;;;4972583;28;21675;-57
2021/10/09 02:40:12;;;;;;;7.75;1.98;;;;;;;;;;4972048;28;20030;-56
2021/10/09 02:42:37;;;;;;;5.63;1.45;;;;;;;;;;4972725;28;20443;-57
2021/10/09 02:45:04;;;;;;;7.18;1.63;;;;;;;;;;4976211;28;20053;-59
2021/10/09 02:47:29;;;;;;;7.57;1.50;;;;;;;;;;4977583;28;20045;-58
2021/10/09 02:49:55;;;;;;;5.97;1.27;;;;;;;;;;4976191;28;20046;-56
2021/10/09 02:52:21;;;;;;;7.43;2.00;;;;;;;;;;4971099;28;20073;-59
2021/10/09 02:54:48;;;;;;;13.38;2.08;;;;;;;;;;4976605;28;20045;-58
2021/10/09 02:57:15;;;;;;;6.72;1.48;;;;;;;;;;4974135;28;20053;-59
2021/10/09 02:59:41;;;;;;;11.68;1.60;;;;;;;;;;4990520;28;20240;-56
2021/10/09 03:02:07;;;;;;;16.10;1.80;;;;;;;;;;4979342;28;20582;-57
2021/10/09 03:04:33;;;;;;;4.75;1.40;;;;;;;;;;4978572;28;20058;-58
2021/10/09 03:06:59;;;;;;;6.22;1.63;;;;;;;;;;4974610;28;20047;-59
2021/10/09 03:09:25;;;;;;;7.25;1.83;;;;;;;;;;4974710;28;20314;-58
2021/10/09 03:11:51;;;;;;;7.45;1.50;;;;;;;;;;4972836;28;20050;-54
2021/10/09 03:14:17;;;;;;;12.40;1.80;;;;;;;;;;4972638;28;20070;-56
2021/10/09 03:16:43;;;;;;;28.13;2.05;;;;;;;;;;4992084;28;20384;-61
2021/10/09 03:19:09;;;;;;;5.03;1.55;;;;;;;;;;4992001;28;20045;-57
2021/10/09 03:21:34;;;;;;;9.48;1.90;;;;;;;;;;4995246;28;20037;-56
2021/10/09 03:24:00;;;;;;;9.32;2.05;;;;;;;;;;4997124;28;20034;-57
2021/10/09 03:26:33;;;;;;;7.53;2.08;;;;;;;;;;4979046;28;20412;-61
2021/10/09 03:28:59;;;;;;;12.07;1.60;;;;;;;;;;4962630;28;20844;-59
2021/10/09 03:31:24;;;;;;;6.40;2.15;;;;;;;;;;4953879;28;20050;-58
2021/10/09 03:33:50;;;;;;;7.22;1.92;;;;;;;;;;4955827;28;20031;-59
2021/10/09 03:36:16;;;;;;;13.00;1.60;;;;;;;;;;4952634;28;20046;-56
2021/10/09 03:38:42;;;;;;;11.48;2.08;;;;;;;;;;4952120;28;20043;-59
2021/10/09 03:41:11;;;;;;;7.78;2.28;;;;;;;;;;4952710;28;20035;-57
2021/10/09 03:43:37;;;;;;;9.98;2.40;;;;;;;;;;4953611;28;20047;-57
2021/10/09 03:46:16;;;;;;;7.18;2.30;;;;;;;;;;4937741;28;20043;-58
2021/10/09 03:48:58;;;;;;;10.70;2.65;;;;;;;;;;4954567;28;20104;-56
2021/10/09 03:54:08;;;;;;;9.32;2.47;;;;;;;;;;4955649;28;20046;-58
2021/10/09 03:56:34;;;;;;;17.27;3.17;;;;;;;;;;4952818;28;20498;-60
2021/10/09 03:59:04;;;;;;;8.32;2.30;;;;;;;;;;4956609;28;20034;-57
2021/10/09 04:01:30;;;;;;;5.93;2.42;;;;;;;;;;4955348;28;20461;-58
2021/10/09 04:03:55;;;;;;;16.58;2.58;;;;;;;;;;4956651;28;20047;-61
2021/10/09 04:06:21;;;;;;;12.43;2.30;;;;;;;;;;4955696;28;20046;-59
2021/10/09 04:08:47;;;;;;;11.13;2.63;;;;;;;;;;4956195;28;20058;-54
2021/10/09 04:11:13;;;;;;;9.90;2.42;;;;;;;;;;4957578;28;20046;-55
2021/10/09 04:13:39;;;;;;;10.63;2.17;;;;;;;;;;4957479;28;20315;-57
2021/10/09 04:16:05;;;;;;;11.80;2.63;;;;;;;;;;4958760;28;20741;-58
2021/10/09 04:18:50;;;;;;;9.68;2.65;;;;;;;;;;5012321;28;20052;-58
2021/10/09 04:21:16;;;;;;;12.23;2.70;;;;;;;;;;5017316;28;20089;-59
2021/10/09 04:23:42;;;;;;;8.27;2.95;;;;;;;;;;4988444;28;20444;-57
2021/10/09 04:26:08;;;;;;;8.48;2.78;;;;;;;;;;5010386;28;20037;-57
2021/10/09 04:28:34;;;;;;;15.15;2.58;;;;;;;;;;5005568;28;20429;-56
2021/10/09 04:31:01;;;;;;;11.73;2.60;;;;;;;;;;5018430;28;20153;-57
2021/10/09 04:33:28;;;;;;;17.08;2.80;;;;;;;;;;5014788;28;20240;-58
2021/10/09 04:35:53;;;;;;;16.88;2.63;;;;;;;;;;5001057;28;20461;-57
2021/10/09 04:38:20;;;;;;;13.60;2.75;;;;;;;;;;5017273;28;20053;-56
2021/10/09 04:40:45;;;;;;;12.85;2.65;;;;;;;;;;5016869;28;20061;-58
2021/10/09 04:43:11;;;;;;;8.55;2.10;;;;;;;;;;5017829;28;20072;-55
2021/10/09 04:45:37;;;;;;;15.00;2.67;;;;;;;;;;5005136;28;20030;-57
2021/10/09 04:48:04;;;;;;;12.68;2.70;;;;;;;;;;5014917;28;20434;-55
2021/10/09 04:50:30;;;;;;;17.15;2.63;;;;;;;;;;5012928;28;20096;-58
2021/10/09 04:52:55;;;;;;;13.50;2.67;;;;;;;;;;5014421;28;20061;-58
2021/10/09 04:55:21;;;;;;;10.07;2.42;;;;;;;;;;5012044;28;21154;-57
2021/10/09 04:57:47;;;;;;;8.75;2.70;;;;;;;;;;4981503;28;20195;-56
2021/10/09 05:00:13;;;;;;;5.22;2.08;;;;;;;;;;4962472;28;20043;-55
2021/10/09 05:02:39;;;;;;;12.02;2.58;;;;;;;;;;4960200;28;20078;-54
2021/10/09 05:05:05;;;;;;;9.63;2.97;;;;;;;;;;4975727;28;20275;-57
2021/10/09 05:07:31;;;;;;;5.97;2.58;;;;;;;;;;4960430;28;20062;-55
2021/10/09 05:09:57;;;;;;;7.10;2.45;;;;;;;;;;4959160;28;20043;-59
2021/10/09 05:12:23;;;;;;;15.15;5.18;;;;;;;;;;4974480;28;20062;-57
2021/10/09 05:14:49;;;;;;;10.18;3.00;;;;;;;;;;4962112;28;20043;-57
2021/10/09 05:17:15;;;;;;;9.32;2.95;;;;;;;;;;4957697;28;20042;-55
2021/10/09 05:19:42;;;;;;;6.20;2.25;;;;;;;;;;4957545;28;20039;-58
2021/10/09 05:22:08;;;;;;;14.05;3.25;;;;;;;;;;4959382;28;20527;-58
2021/10/09 05:24:34;;;;;;;9.82;2.60;;;;;;;;;;4959554;28;20046;-57
2021/10/09 05:27:00;;;;;;;7.40;2.28;;;;;;;;;;4963463;28;20656;-52
2021/10/09 05:29:25;;;;;;;6.18;2.40;;;;;;;;;;4961000;28;20042;-58
2021/10/09 05:31:53;;;;;;;10.18;2.90;;;;;;;;;;4961860;28;20234;-55
2021/10/09 05:34:19;;;;;;;11.57;2.58;;;;;;;;;;4971711;28;20046;-56
2021/10/09 05:36:45;;;;;;;11.48;2.50;;;;;;;;;;4979500;28;20043;-57
2021/10/09 05:39:11;;;;;;;17.23;2.42;;;;;;;;;;4961047;28;20080;-58
2021/10/09 05:41:37;;;;;;;15.13;2.65;;;;;;;;;;4971883;28;20058;-57
2021/10/09 05:44:03;;;;;;;9.80;2.55;;;;;;;;;;4958678;28;20289;-55
2021/10/09 05:46:29;;;;;;;18.67;2.58;;;;;;;;;;4955426;28;20882;-57
2021/10/09 05:48:56;;;;;;;5.15;2.03;;;;;;;;;;4955322;28;20046;-58
2021/10/09 05:51:28;;;;;;;8.45;2.47;;;;;;;;;;4957624;28;20050;-57
2021/10/09 05:54:15;;;;;;;6.50;1.70;;;;;;;;;;4954688;28;20425;-57
2021/10/09 05:59:59;;;;;;;12.13;2.58;;;;;;;;;;4954564;28;20138;-58
2021/10/09 06:25:04;;;;;;;8.55;2.22;;;;;;;;;;4965678;28;20052;-58
2021/10/09 06:32:33;;;;;;;8.10;2.65;;;;;;;;;;4962363;28;20053;-55
2021/10/09 06:45:58;;;;;;;10.80;2.75;;;;;;;;;;4957565;28;20044;-57
2021/10/09 06:48:57;;;;;;;13.27;3.00;;;;;;;;;;4955743;28;20057;-56
2021/10/09 06:59:37;;;;;;;9.55;2.38;;;;;;;;;;4953695;28;20031;-57
2021/10/09 07:02:04;;;;;;;8.93;2.58;;;;;;;;;;4954710;28;20034;-58
2021/10/09 07:04:30;;;;;;;6.22;2.30;;;;;;;;;;4955322;28;20038;-57
2021/10/09 07:06:58;;;;;;;5.63;2.10;;;;;;;;;;4956112;28;20292;-57
2021/10/09 07:09:23;;;;;;;6.50;2.63;;;;;;;;;;4954636;28;20051;-59
2021/10/09 07:11:49;;;;;;;10.40;1.83;;;;;;;;;;4953365;28;20061;-58
2021/10/09 07:14:15;;;;;;;8.35;2.03;;;;;;;;;;4955387;28;20058;-58
2021/10/09 07:16:41;;;;;;;8.88;1.98;;;;;;;;;;4954522;28;20039;-60
2021/10/09 07:19:07;;;;;;;9.70;2.10;;;;;;;;;;4954759;28;20046;-57
2021/10/09 07:21:33;;;;;;;9.00;2.13;;;;;;;;;;4952617;28;20058;-57
2021/10/09 07:23:59;;;;;;;9.80;2.00;;;;;;;;;;4953958;28;20451;-59
2021/10/09 07:26:25;;;;;;;5.03;1.70;;;;;;;;;;4954976;28;20043;-58
2021/10/09 07:28:50;;;;;;;7.18;1.85;;;;;;;;;;4957000;28;20043;-58
2021/10/09 07:31:16;;;;;;;5.93;2.05;;;;;;;;;;4956019;28;20118;-59
2021/10/09 07:33:42;;;;;;;6.75;1.95;;;;;;;;;;4952979;28;20046;-58
2021/10/09 07:36:08;;;;;;;18.92;2.03;;;;;;;;;;4956775;28;20035;-56
2021/10/09 07:38:34;;;;;;;4.97;1.67;;;;;;;;;;4975978;28;20108;-58
2021/10/09 07:41:00;;;;;;;7.75;2.05;;;;;;;;;;4952560;28;20039;-56
2021/10/09 07:43:26;;;;;;;4.53;1.73;;;;;;;;;;4951592;28;20031;-59
2021/10/09 07:45:52;;;;;;;11.55;1.83;;;;;;;;;;4953363;28;20054;-58
2021/10/09 07:48:17;;;;;;;10.45;1.92;;;;;;;;;;4952303;28;20035;-59
2021/10/09 07:50:43;;;;;;;7.20;2.00;;;;;;;;;;4972011;28;20105;-57
2021/10/09 07:53:10;;;;;;;15.63;3.20;;;;;;;;;;4959991;28;20384;-59
2021/10/09 07:55:36;;;;;;;8.63;3.10;;;;;;;;;;4958966;28;20042;-57
2021/10/09 07:58:01;;;;;;;9.35;2.75;;;;;;;;;;4958413;28;20042;-57
2021/10/09 08:00:28;;;;;;;5.95;1.67;;;;;;;;;;4972339;28;20444;-59
2021/10/09 08:02:53;;;;;;;3.75;1.80;;;;;;;;;;4959458;28;20051;-58
2021/10/09 08:05:22;;;;;;;5.93;1.73;;;;;;;;;;4957230;28;20046;-59
2021/10/09 08:07:48;;;;;;;9.88;2.03;;;;;;;;;;4959131;28;20044;-59
2021/10/09 08:10:14;;;;;;;4.45;1.90;;;;;;;;;;4958829;28;20134;-58
2021/10/09 08:12:40;;;;;;;3.17;1.05;;;;;;;;;;4962219;28;20038;-56
2021/10/09 08:15:06;;;;;;;3.78;1.42;;;;;;;;;;4958265;28;20072;-59
2021/10/09 08:17:32;;;;;;;4.70;1.63;;;;;;;;;;4956827;28;20065;-57
2021/10/09 08:19:58;;;;;;;5.10;1.52;;;;;;;;;;4959421;28;20036;-54
2021/10/09 08:22:27;;;;;;;9.38;1.30;;;;;;;;;;4955092;28;20043;-54
2021/10/09 08:36:12;;;;;;;2.47;0.88;;;;;;;;;;4958516;28;20061;-53
2021/10/09 08:41:10;;;;;;;2.47;0.88;;;;;;;;;;4965673;28;20392;-55
2021/10/09 08:43:36;;;;;;;3.72;1.05;;;;;;;;;;4952222;28;20045;-54
2021/10/09 08:46:03;;;;;;;5.18;0.98;;;;;;;;;;4952936;28;20514;-52
2021/10/09 08:48:30;;;;;;;3.28;1.10;;;;;;;;;;4951077;28;20162;-54
2021/10/09 08:50:56;;;;;;;5.78;1.17;;;;;;;;;;4953591;28;20081;-53
2021/10/09 08:53:34;;;;;;;3.42;1.02;;;;;;;;;;4951521;28;20972;-55
2021/10/09 08:56:00;;;;;;;3.65;1.00;;;;;;;;;;4960866;28;20059;-53
2021/10/09 08:58:44;;;;;;;2.95;1.05;;;;;;;;;;4949751;28;20064;-54
2021/10/09 09:01:35;;;;;;;3.22;0.90;;;;;;;;;;4952309;28;20043;-55
2021/10/09 09:25:49;;;;;;;2.20;0.70;;;;;;;;;;4950976;28;20206;-53
2021/10/09 09:31:12;;;;;;;2.40;0.88;;;;;;;;;;4953223;28;20042;-54
2021/10/09 09:36:40;;;;;;;3.35;1.10;;;;;;;;;;4957953;28;20086;-54
2021/10/09 09:39:08;;;;;;;5.75;1.40;;;;;;;;;;4956528;28;20049;-52
2021/10/09 09:41:47;;;;;;;5.53;1.10;;;;;;;;;;4953358;28;20115;-56
2021/10/09 09:44:14;;;;;;;4.60;1.55;;;;;;;;;;4953778;28;20792;-52
2021/10/09 09:46:40;;;;;;;6.78;2.08;;;;;;;;;;4952214;28;20042;-53
2021/10/09 09:49:06;;;;;;;6.00;2.55;;;;;;;;;;4952121;28;20562;-55
2021/10/09 09:51:35;;;;;;;30.98;12.68;;;;;;;;;;4952919;28;20054;-55
2021/10/09 09:54:01;;;;;;;22.73;10.38;;;;;;;;;;4953896;28;21864;-51
2021/10/09 09:56:28;;;;;;;49.45;25.55;;;;;;;;;;4967584;28;20046;-51
2021/10/09 09:58:57;;;;;;;42.28;19.50;;;;;;;;;;4955235;28;20126;-54
2021/10/09 10:01:24;;;;;;;290.40;124.30;;;;;;;;;;4956517;28;20054;-54
2021/10/09 10:03:50;;;;;;;32.50;13.23;;;;;;;;;;4955001;28;20182;-53
2021/10/09 10:06:16;;;;;;;14.40;7.07;;;;;;;;;;4956865;28;20050;-53
2021/10/09 10:08:43;;;;;;;74.40;31.90;;;;;;;;;;4954245;28;20055;-53
2021/10/09 10:11:10;;;;;;;530.15;250.88;;;;;;;;;;4954473;28;20126;-52
2021/10/09 10:13:37;;;;;;;404.30;178.63;;;;;;;;;;4953276;28;20062;-54
2021/10/09 10:16:08;;;;;;;429.80;184.55;;;;;;;;;;4952598;28;20043;-51
2021/10/09 10:18:46;;;;;;;624.20;284.67;;;;;;;;;;4950210;28;20539;-51
2021/10/09 10:21:12;;;;;;;548.72;236.13;;;;;;;;;;4953907;28;20049;-56
2021/10/09 10:23:42;;;;;;;501.00;222.98;;;;;;;;;;4952261;28;20111;-53
2021/10/09 10:26:20;;;;;;;857.22;399.95;;;;;;;;;;4950599;28;20034;-52
2021/10/09 10:29:06;;;;;;;644.92;267.75;;;;;;;;;;4970254;28;20082;-52
2021/10/09 10:31:35;;;;;;;401.80;153.95;;;;;;;;;;4963081;28;20054;-51
2021/10/09 10:34:20;;;;;;;307.77;111.07;;;;;;;;;;4965337;28;20043;-54
2021/10/09 10:36:46;;;;;;;513.38;198.63;;;;;;;;;;4970866;28;20042;-52
2021/10/09 10:39:14;;;;;;;245.95;100.68;;;;;;;;;;4973077;28;20031;-54
2021/10/09 10:41:47;;;;;;;151.30;47.60;;;;;;;;;;4971096;28;20041;-54
2021/10/09 10:44:32;;;;;;;797.15;350.83;;;;;;;;;;4969947;28;20038;-53
2021/10/09 10:47:02;;;;;;;768.60;346.90;;;;;;;;;;4970701;28;20034;-54
2021/10/09 10:49:47;;;;;;;72.15;28.83;;;;;;;;;;4967339;28;20053;-54
2021/10/09 10:52:37;;;;;;;91.72;32.00;;;;;;;;;;4951280;28;20241;-54
2021/10/09 10:55:06;;;;;;;131.32;53.38;;;;;;;;;;4955089;28;20050;-53
2021/10/09 10:57:32;;;;;;;156.60;54.65;;;;;;;;;;4950885;28;20137;-54
2021/10/09 11:00:18;;;;;;;19.33;7.50;;;;;;;;;;4951199;28;20103;-53
2021/10/09 11:02:44;;;;;;;7.93;3.60;;;;;;;;;;4984324;28;20038;-54
2021/10/09 11:05:11;;;;;;;15.27;5.88;;;;;;;;;;4963778;28;20834;-53
2021/10/09 11:07:38;;;;;;;65.22;20.83;;;;;;;;;;4959222;28;20532;-55
2021/10/09 11:10:07;;;;;;;19.55;6.85;;;;;;;;;;4950743;28;20142;-56
2021/10/09 11:12:34;;;;;;;4.65;2.30;;;;;;;;;;4950028;28;20073;-53
2021/10/09 11:15:03;;;;;;;14.35;4.95;;;;;;;;;;4952256;28;20098;-52
2021/10/09 11:17:33;;;;;;;4.85;1.70;;;;;;;;;;4950347;28;20039;-54
2021/10/09 11:19:59;;;;;;;5.68;2.08;;;;;;;;;;4949999;28;20046;-54
2021/10/09 11:22:25;;;;;;;5.85;1.52;;;;;;;;;;4950295;28;20047;-55
2021/10/09 11:24:52;;;;;;;3.67;1.50;;;;;;;;;;4951838;28;20781;-52
2021/10/09 11:27:18;;;;;;;3.65;1.25;;;;;;;;;;4951194;28;20195;-53
2021/10/09 11:30:03;;;;;;;6.25;1.48;;;;;;;;;;4968635;28;20129;-54
2021/10/09 11:32:30;;;;;;;3.35;1.17;;;;;;;;;;4954431;28;20457;-52
2021/10/09 11:34:56;;;;;;;2.95;1.10;;;;;;;;;;4955024;28;20069;-54
2021/10/09 11:37:22;;;;;;;40.55;4.05;;;;;;;;;;4956972;28;20099;-54
2021/10/09 11:39:52;;;;;;;5.05;1.17;;;;;;;;;;4956699;28;20035;-55
2021/10/09 11:42:22;;;;;;;5.95;1.73;;;;;;;;;;4956809;28;20039;-55
2021/10/09 11:45:04;;;;;;;30.25;10.38;;;;;;;;;;4974136;28;20129;-55
2021/10/09 11:56:07;;;;;;;8.55;1.20;;;;;;;;;;4959555;28;20415;-57
2021/10/09 11:58:44;;;;;;;67.82;29.38;;;;;;;;;;4959476;28;20102;-54
2021/10/09 12:01:23;;;;;;;182.82;79.32;;;;;;;;;;4963911;28;20537;-55
2021/10/09 12:03:49;;;;;;;125.53;53.50;;;;;;;;;;4961275;28;20031;-54
2021/10/09 12:06:14;;;;;;;6.30;2.20;;;;;;;;;;4975604;28;20066;-53
2021/10/09 12:08:47;;;;;;;10.63;3.47;;;;;;;;;;4969986;28;20173;-56
2021/10/09 12:11:14;;;;;;;189.90;84.43;;;;;;;;;;4958857;28;20400;-54
2021/10/09 12:13:57;;;;;;;289.90;104.30;;;;;;;;;;4958591;28;20080;-59
2021/10/09 12:16:25;;;;;;;245.57;102.13;;;;;;;;;;4972153;28;20150;-55
2021/10/09 12:18:55;;;;;;;68.75;26.27;;;;;;;;;;4960414;28;20035;-53
2021/10/09 12:21:31;;;;;;;304.77;114.63;;;;;;;;;;4958426;28;20078;-55
2021/10/09 12:23:57;;;;;;;100.80;39.47;;;;;;;;;;4958982;28;20045;-55
2021/10/09 12:26:24;;;;;;;92.28;33.67;;;;;;;;;;4958936;28;20118;-55
2021/10/09 12:29:02;;;;;;;35.00;13.52;;;;;;;;;;4974614;28;20126;-52
2021/10/09 12:31:31;;;;;;;36.97;13.60;;;;;;;;;;4975900;28;20126;-51
2021/10/09 12:33:57;;;;;;;21.95;8.27;;;;;;;;;;4959111;28;20036;-54
2021/10/09 12:39:22;;;;;;;57.10;19.38;;;;;;;;;;4972071;28;20047;-52
2021/10/09 12:41:52;;;;;;;186.93;71.65;;;;;;;;;;4975854;28;20044;-54
2021/10/09 12:44:18;;;;;;;43.75;17.58;;;;;;;;;;4961038;28;20042;-55
2021/10/09 12:46:44;;;;;;;165.13;62.92;;;;;;;;;;4980895;28;20065;-55
2021/10/09 12:49:10;;;;;;;53.60;20.13;;;;;;;;;;4974408;28;20102;-53
2021/10/09 12:51:36;;;;;;;286.05;102.72;;;;;;;;;;4957905;28;20043;-55
2021/10/09 12:54:08;;;;;;;178.50;61.78;;;;;;;;;;4957465;28;20043;-53
2021/10/09 12:56:35;;;;;;;159.40;52.08;;;;;;;;;;4960080;28;20049;-55
2021/10/09 12:59:00;;;;;;;257.65;84.95;;;;;;;;;;4959129;28;20099;-55
2021/10/09 13:01:27;;;;;;;390.70;132.15;;;;;;;;;;4957026;28;20126;-55
2021/10/09 13:03:53;;;;;;;280.20;101.50;;;;;;;;;;4957619;28;20038;-55
2021/10/09 13:06:19;;;;;;;342.05;113.60;;;;;;;;;;4959625;28;20121;-55
2021/10/09 13:08:44;;;;;;;278.67;104.60;;;;;;;;;;4956067;28;20054;-55
2021/10/09 13:11:10;;;;;;;538.15;205.18;;;;;;;;;;4957190;28;20329;-53
2021/10/09 13:13:38;;;;;;;196.50;69.65;;;;;;;;;;4956042;28;20118;-53
2021/10/09 13:16:04;;;;;;;97.93;35.92;;;;;;;;;;4956515;28;20039;-54
2021/10/09 13:18:29;;;;;;;159.93;60.10;;;;;;;;;;4953633;28;20043;-52
2021/10/09 13:20:55;;;;;;;237.32;85.63;;;;;;;;;;4955107;28;20557;-54
2021/10/09 13:23:21;;;;;;;132.70;51.05;;;;;;;;;;4955235;28;20490;-55
2021/10/09 13:25:47;;;;;;;74.50;29.73;;;;;;;;;;4954693;28;20039;-54
2021/10/09 13:28:13;;;;;;;62.47;19.15;;;;;;;;;;4953293;28;20043;-54
2021/10/09 13:30:39;;;;;;;59.13;22.80;;;;;;;;;;4953423;28;20062;-55
2021/10/09 13:33:05;;;;;;;44.60;20.48;;;;;;;;;;4951864;28;20062;-56
2021/10/09 13:35:30;;;;;;;57.00;19.05;;;;;;;;;;4951410;28;20480;-56
2021/10/09 13:37:59;;;;;;;50.28;21.40;;;;;;;;;;4952202;28;20066;-56
2021/10/09 13:40:25;;;;;;;75.55;28.55;;;;;;;;;;4950969;28;20128;-56
2021/10/09 13:42:50;;;;;;;71.35;30.00;;;;;;;;;;4970884;28;20042;-55
2021/10/09 13:45:17;;;;;;;56.47;20.80;;;;;;;;;;4955566;28;20085;-56
2021/10/09 13:47:43;;;;;;;45.65;13.85;;;;;;;;;;4950267;28;20090;-56
2021/10/09 13:50:09;;;;;;;20.50;5.82;;;;;;;;;;4952655;28;20510;-54
2021/10/09 13:52:35;;;;;;;13.73;4.32;;;;;;;;;;4950284;28;20058;-54
2021/10/09 13:55:00;;;;;;;19.05;5.65;;;;;;;;;;4951664;28;20031;-55
2021/10/09 13:57:26;;;;;;;16.92;5.10;;;;;;;;;;4950838;28;20577;-55
2021/10/09 13:59:52;;;;;;;6.88;2.30;;;;;;;;;;4951770;28;20066;-56
2021/10/09 14:02:18;;;;;;;5.13;1.55;;;;;;;;;;4949436;28;20047;-56
2021/10/09 14:04:44;;;;;;;5.00;1.73;;;;;;;;;;4952182;28;20142;-56
2021/10/09 14:07:10;;;;;;;6.32;1.60;;;;;;;;;;4951862;28;20595;-54
2021/10/09 14:09:35;;;;;;;7.85;1.75;;;;;;;;;;4949980;28;20053;-53
2021/10/09 14:12:01;;;;;;;4.53;1.40;;;;;;;;;;4952968;28;20050;-55
2021/10/09 14:14:28;;;;;;;8.68;1.92;;;;;;;;;;4951418;28;20618;-52
2021/10/09 14:16:57;;;;;;;17.52;3.25;;;;;;;;;;4952259;28;20051;-55
2021/10/09 14:19:23;;;;;;;15.20;6.60;;;;;;;;;;4960046;28;20038;-54
2021/10/09 14:21:49;;;;;;;14.32;4.80;;;;;;;;;;4953467;28;20054;-55
2021/10/09 14:24:19;;;;;;;14.25;4.28;;;;;;;;;;4951774;28;20046;-51
2021/10/09 14:26:45;;;;;;;6.43;1.90;;;;;;;;;;4949966;28;20062;-54
2021/10/09 14:29:10;;;;;;;7.68;2.85;;;;;;;;;;4951542;28;20361;-54
2021/10/09 14:31:36;;;;;;;4.47;1.80;;;;;;;;;;4951983;28;20055;-54
2021/10/09 14:34:03;;;;;;;8.30;2.60;;;;;;;;;;4960006;28;20573;-53
2021/10/09 14:36:28;;;;;;;5.63;2.00;;;;;;;;;;4967347;28;20141;-54
2021/10/09 14:38:55;;;;;;;6.20;1.75;;;;;;;;;;4951548;28;20927;-52
2021/10/09 14:41:21;;;;;;;10.45;2.70;;;;;;;;;;4949660;28;20928;-54
2021/10/09 14:43:47;;;;;;;6.88;2.10;;;;;;;;;;4950641;28;20066;-53
2021/10/09 14:49:01;;;;;;;7.75;3.03;;;;;;;;;;4962442;28;20125;-55
2021/10/09 14:51:42;;;;;;;9.55;2.30;;;;;;;;;;4965011;28;20054;-54
2021/10/09 15:02:47;;;;;;;10.43;1.83;;;;;;;;;;4950519;28;20061;-55
2021/10/09 15:18:37;;;;;;;4.53;1.67;;;;;;;;;;4971251;28;20455;-53
2021/10/09 15:21:02;;;;;;;3.60;1.38;;;;;;;;;;4971972;28;20042;-54
2021/10/09 15:23:29;;;;;;;3.45;1.50;;;;;;;;;;4968093;28;20108;-54
2021/10/09 15:25:55;;;;;;;5.90;1.63;;;;;;;;;;4969632;28;22238;-55
2021/10/09 15:28:21;;;;;;;6.25;2.15;;;;;;;;;;4967192;28;20039;-55
2021/10/09 15:30:46;;;;;;;3.78;1.15;;;;;;;;;;4968080;28;20070;-55
2021/10/09 15:33:13;;;;;;;5.43;1.63;;;;;;;;;;4967725;28;20062;-55
2021/10/09 15:35:39;;;;;;;4.22;1.42;;;;;;;;;;4969262;28;20195;-55
2021/10/09 15:38:05;;;;;;;3.30;1.10;;;;;;;;;;4969080;28;20054;-55
2021/10/09 15:40:32;;;;;;;6.20;1.30;;;;;;;;;;4970196;28;20533;-55
2021/10/09 15:42:57;;;;;;;5.53;1.58;;;;;;;;;;4955674;28;20046;-53
2021/10/09 15:45:23;;;;;;;6.22;1.70;;;;;;;;;;4949292;28;20063;-56
2021/10/09 15:47:53;;;;;;;4.28;1.30;;;;;;;;;;4964703;28;20925;-55
2021/10/09 15:50:19;;;;;;;3.35;1.45;;;;;;;;;;4949265;28;20042;-55
2021/10/09 15:52:46;;;;;;;4.75;1.52;;;;;;;;;;4957010;28;20078;-54
2021/10/09 15:55:12;;;;;;;5.68;1.50;;;;;;;;;;4950326;28;20053;-55
2021/10/09 15:57:38;;;;;;;5.15;1.45;;;;;;;;;;4946487;28;20068;-55
2021/10/09 16:00:05;;;;;;;6.25;1.27;;;;;;;;;;4949449;28;20866;-53
2021/10/09 16:02:31;;;;;;;2.97;1.13;;;;;;;;;;4948712;28;20050;-56
2021/10/09 16:04:57;;;;;;;2.80;1.05;;;;;;;;;;4948704;28;20043;-54
2021/10/09 16:07:23;;;;;;;8.60;1.40;;;;;;;;;;4948606;28;20053;-54
2021/10/09 16:09:49;;;;;;;7.82;1.35;;;;;;;;;;4950636;28;20123;-54
2021/10/09 16:12:15;;;;;;;5.13;1.40;;;;;;;;;;4950567;28;20062;-55
2021/10/09 16:14:40;;;;;;;4.90;1.40;;;;;;;;;;4948979;28;20145;-55
2021/10/09 16:17:19;;;;;;;6.25;1.00;;;;;;;;;;4952427;28;20062;-55
2021/10/09 16:19:45;;;;;;;8.45;1.20;;;;;;;;;;4971630;28;20062;-54
2021/10/09 16:22:11;;;;;;;10.68;1.20;;;;;;;;;;4957961;28;20479;-55
2021/10/09 16:24:36;;;;;;;4.57;1.33;;;;;;;;;;4952961;28;20043;-55
2021/10/09 16:27:02;;;;;;;4.15;1.00;;;;;;;;;;4953799;28;20039;-54
2021/10/09 16:29:28;;;;;;;2.85;0.80;;;;;;;;;;4952279;28;20076;-54
2021/10/09 16:31:54;;;;;;;3.58;0.77;;;;;;;;;;4968598;28;20055;-56
2021/10/09 16:34:20;;;;;;;2.20;0.73;;;;;;;;;;4953133;28;20039;-52
2021/10/09 16:36:46;;;;;;;3.20;0.90;;;;;;;;;;4956415;28;20443;-56
2021/10/09 16:39:11;;;;;;;2.85;0.88;;;;;;;;;;4957576;28;20072;-56
2021/10/09 16:41:37;;;;;;;4.40;1.08;;;;;;;;;;4953040;28;20689;-56
2021/10/09 16:44:03;;;;;;;4.25;0.80;;;;;;;;;;4951585;28;20098;-55
2021/10/09 16:46:29;;;;;;;4.32;0.98;;;;;;;;;;4951441;28;20046;-56
2021/10/09 16:48:55;;;;;;;3.70;0.82;;;;;;;;;;4953458;28;20047;-54
2021/10/09 16:51:21;;;;;;;8.82;0.82;;;;;;;;;;4950788;28;20035;-55
2021/10/09 16:53:47;;;;;;;8.30;0.80;;;;;;;;;;4952350;28;20562;-56
2021/10/09 16:56:13;;;;;;;2.53;0.60;;;;;;;;;;4953611;28;20380;-55
2021/10/09 16:58:39;;;;;;;1.65;0.63;;;;;;;;;;4952682;28;20042;-54
2021/10/09 17:01:05;;;;;;;2.17;0.80;;;;;;;;;;4951742;28;20058;-56